OCI322 YMML-YSSY
Flight info
| Callsign | OCI322 |
|---|---|
| Flight time | N/A |
| Altitude | 37000 |
| Route | DOSEL2/34 DOSEL Y59 RIVET |
| Aircraft | A20N/M-SDE2E3FGHIRWXY/LB1 |
Departure
| Time | 2026-05-01 10:50 |
|---|---|
| Airport | Melbourne Airport (YMML) |
Arrival
| Time | N/A |
|---|---|
| Airport | Sydney Kingsford Smith International Airport (YSSY) |
| Time | Latitude | Longitude | Altitude | Speed | Heading |
|---|---|---|---|---|---|
| 2026-05-01 10:21 | -37.67348 | 144.84678 | 357 ft | 0 kts | 351° |
| 2026-05-01 10:31 | -37.67353 | 144.84679 | 366 ft | 2 kts | 351° |
| 2026-05-01 10:31 | -37.67369 | 144.84682 | 365 ft | 2 kts | 349° |
| 2026-05-01 10:32 | -37.67401 | 144.84691 | 361 ft | 2 kts | 345° |
| 2026-05-01 10:32 | -37.67417 | 144.84697 | 364 ft | 2 kts | 340° |
| 2026-05-01 10:32 | -37.67442 | 144.84722 | 360 ft | 2 kts | 278° |
| 2026-05-01 10:33 | -37.67442 | 144.84734 | 360 ft | 0 kts | 263° |
| 2026-05-01 10:38 | -37.67442 | 144.84729 | 364 ft | 3 kts | 268° |
| 2026-05-01 10:39 | -37.67443 | 144.84666 | 360 ft | 12 kts | 262° |
| 2026-05-01 10:39 | -37.67458 | 144.84535 | 360 ft | 19 kts | 262° |
| 2026-05-01 10:39 | -37.67487 | 144.84360 | 367 ft | 23 kts | 235° |
| 2026-05-01 10:39 | -37.67653 | 144.84354 | 364 ft | 27 kts | 173° |
| 2026-05-01 10:40 | -37.67779 | 144.84362 | 360 ft | 16 kts | 195° |
| 2026-05-01 10:40 | -37.67800 | 144.84350 | 358 ft | 0 kts | 209° |
| 2026-05-01 10:40 | -37.67830 | 144.84316 | 357 ft | 11 kts | 229° |
| 2026-05-01 10:40 | -37.67847 | 144.84282 | 360 ft | 0 kts | 246° |
| 2026-05-01 10:42 | -37.67849 | 144.84274 | 357 ft | 4 kts | 249° |
| 2026-05-01 10:42 | -37.67859 | 144.84213 | 354 ft | 10 kts | 262° |
| 2026-05-01 10:43 | -37.67861 | 144.84199 | 356 ft | 0 kts | 260° |
| 2026-05-01 10:44 | -37.67862 | 144.84192 | 357 ft | 4 kts | 260° |
| 2026-05-01 10:45 | -37.67871 | 144.84121 | 361 ft | 10 kts | 261° |
| 2026-05-01 10:45 | -37.67872 | 144.84114 | 360 ft | 0 kts | 261° |
| 2026-05-01 10:48 | -37.67873 | 144.84087 | 356 ft | 8 kts | 271° |
| 2026-05-01 10:48 | -37.67841 | 144.83994 | 355 ft | 14 kts | 312° |
| 2026-05-01 10:48 | -37.67761 | 144.83947 | 362 ft | 3 kts | 351° |
| 2026-05-01 10:49 | -37.67697 | 144.83934 | 363 ft | 34 kts | 351° |
| 2026-05-01 10:49 | -37.67269 | 144.83855 | 377 ft | 89 kts | 351° |
| 2026-05-01 10:50 | -37.66489 | 144.83710 | 396 ft | 136 kts | 352° |
| 2026-05-01 10:50 | -37.65480 | 144.83525 | 707 ft | 143 kts | 352° |
| 2026-05-01 10:50 | -37.64519 | 144.83333 | 1208 ft | 137 kts | 353° |
| 2026-05-01 10:50 | -37.63584 | 144.83313 | 1652 ft | 132 kts | 21° |
| 2026-05-01 10:51 | -37.63012 | 144.84139 | 2037 ft | 140 kts | 82° |
| 2026-05-01 10:51 | -37.63143 | 144.85411 | 2511 ft | 154 kts | 88° |
| 2026-05-01 10:51 | -37.63125 | 144.86759 | 3085 ft | 148 kts | 68° |
| 2026-05-01 10:51 | -37.62624 | 144.87962 | 3405 ft | 164 kts | 50° |
| 2026-05-01 10:52 | -37.61885 | 144.89177 | 3695 ft | 187 kts | 47° |
| 2026-05-01 10:52 | -37.61010 | 144.90571 | 3919 ft | 217 kts | 49° |
| 2026-05-01 10:52 | -37.60058 | 144.92171 | 4323 ft | 238 kts | 50° |
| 2026-05-01 10:52 | -37.59061 | 144.93911 | 4912 ft | 250 kts | 50° |
| 2026-05-01 10:53 | -37.58045 | 144.95718 | 5669 ft | 255 kts | 50° |
| 2026-05-01 10:53 | -37.57024 | 144.97549 | 6548 ft | 256 kts | 50° |
| 2026-05-01 10:53 | -37.55993 | 144.99400 | 7332 ft | 261 kts | 50° |
| 2026-05-01 10:53 | -37.54921 | 145.01322 | 8118 ft | 267 kts | 51° |
| 2026-05-01 10:54 | -37.53843 | 145.03257 | 8890 ft | 273 kts | 52° |
| 2026-05-01 10:54 | -37.52741 | 145.05234 | 9703 ft | 277 kts | 52° |
| 2026-05-01 10:54 | -37.51631 | 145.07225 | 10361 ft | 288 kts | 52° |
| 2026-05-01 10:54 | -37.50422 | 145.09387 | 10687 ft | 309 kts | 52° |
| 2026-05-01 10:55 | -37.49163 | 145.11639 | 11012 ft | 328 kts | 52° |
| 2026-05-01 10:55 | -37.47827 | 145.14032 | 11551 ft | 339 kts | 52° |
| 2026-05-01 10:55 | -37.46462 | 145.16477 | 12235 ft | 344 kts | 52° |
| 2026-05-01 10:55 | -37.45073 | 145.18963 | 12976 ft | 348 kts | 52° |
| 2026-05-01 10:56 | -37.43671 | 145.21467 | 13724 ft | 352 kts | 52° |
| 2026-05-01 10:56 | -37.42253 | 145.23999 | 14374 ft | 357 kts | 52° |
| 2026-05-01 10:56 | -37.40815 | 145.26566 | 14968 ft | 361 kts | 52° |
| 2026-05-01 10:56 | -37.39354 | 145.29170 | 15567 ft | 366 kts | 52° |
| 2026-05-01 10:57 | -37.37877 | 145.31800 | 16208 ft | 370 kts | 52° |
| 2026-05-01 10:57 | -37.36384 | 145.34458 | 16837 ft | 374 kts | 52° |
| 2026-05-01 10:57 | -37.34878 | 145.37147 | 17456 ft | 378 kts | 52° |
| 2026-05-01 10:57 | -37.33361 | 145.39864 | 18089 ft | 382 kts | 52° |
| 2026-05-01 10:58 | -37.31834 | 145.42611 | 18678 ft | 386 kts | 52° |
| 2026-05-01 10:58 | -37.30290 | 145.45391 | 19236 ft | 389 kts | 52° |
| 2026-05-01 10:58 | -37.28718 | 145.48173 | 19808 ft | 392 kts | 51° |
| 2026-05-01 10:58 | -37.27128 | 145.50967 | 20357 ft | 396 kts | 51° |
| 2026-05-01 10:59 | -37.25507 | 145.53815 | 20613 ft | 407 kts | 51° |
| 2026-05-01 10:59 | -37.24405 | 145.55753 | 20755 ft | 414 kts | 51° |
| 2026-05-01 10:59 | -37.22712 | 145.58736 | 20981 ft | 425 kts | 52° |
| 2026-05-01 10:59 | -37.20976 | 145.61799 | 21184 ft | 436 kts | 52° |
| 2026-05-01 11:00 | -37.19201 | 145.64928 | 21385 ft | 446 kts | 51° |
| 2026-05-01 11:00 | -37.17387 | 145.68125 | 21581 ft | 454 kts | 52° |
| 2026-05-01 11:00 | -37.15538 | 145.71381 | 21912 ft | 460 kts | 52° |
| 2026-05-01 11:00 | -37.13678 | 145.74655 | 22307 ft | 463 kts | 51° |
| 2026-05-01 11:01 | -37.11805 | 145.77946 | 22720 ft | 466 kts | 51° |
| 2026-05-01 11:01 | -37.09919 | 145.81258 | 23179 ft | 467 kts | 52° |
| 2026-05-01 11:01 | -37.08024 | 145.84580 | 23621 ft | 470 kts | 51° |
| 2026-05-01 11:01 | -37.06115 | 145.87922 | 23918 ft | 475 kts | 51° |
| 2026-05-01 11:02 | -37.04187 | 145.91296 | 24244 ft | 478 kts | 51° |
| 2026-05-01 11:02 | -37.02248 | 145.94685 | 24587 ft | 480 kts | 51° |
| 2026-05-01 11:02 | -37.00299 | 145.98089 | 24913 ft | 482 kts | 52° |
| 2026-05-01 11:02 | -36.98338 | 146.01509 | 25242 ft | 485 kts | 52° |
| 2026-05-01 11:03 | -36.96367 | 146.04943 | 25562 ft | 487 kts | 52° |
| 2026-05-01 11:03 | -36.94392 | 146.08383 | 25971 ft | 486 kts | 52° |
| 2026-05-01 11:03 | -36.92419 | 146.11814 | 26366 ft | 487 kts | 52° |
| 2026-05-01 11:03 | -36.90446 | 146.15242 | 26775 ft | 486 kts | 52° |
| 2026-05-01 11:04 | -36.88467 | 146.18677 | 27198 ft | 486 kts | 52° |
| 2026-05-01 11:04 | -36.86493 | 146.22099 | 27640 ft | 485 kts | 52° |
| 2026-05-01 11:04 | -36.84519 | 146.25517 | 28059 ft | 485 kts | 52° |
| 2026-05-01 11:04 | -36.82545 | 146.28932 | 28465 ft | 485 kts | 52° |
| 2026-05-01 11:05 | -36.80571 | 146.32344 | 28887 ft | 484 kts | 52° |
| 2026-05-01 11:05 | -36.78595 | 146.35755 | 29187 ft | 486 kts | 52° |
| 2026-05-01 11:05 | -36.76613 | 146.39173 | 29583 ft | 486 kts | 52° |
| 2026-05-01 11:05 | -36.74654 | 146.42544 | 29981 ft | 486 kts | 52° |
| 2026-05-01 11:06 | -36.72671 | 146.45955 | 30360 ft | 486 kts | 52° |
| 2026-05-01 11:06 | -36.70663 | 146.49407 | 30696 ft | 486 kts | 52° |
| 2026-05-01 11:06 | -36.68678 | 146.52815 | 31024 ft | 486 kts | 52° |
| 2026-05-01 11:07 | -36.64704 | 146.59630 | 31654 ft | 486 kts | 52° |
| 2026-05-01 11:07 | -36.62719 | 146.63030 | 31996 ft | 486 kts | 52° |
| 2026-05-01 11:07 | -36.60730 | 146.66434 | 32310 ft | 485 kts | 51° |
| 2026-05-01 11:07 | -36.58745 | 146.69827 | 32623 ft | 485 kts | 51° |
| 2026-05-01 11:08 | -36.56759 | 146.73217 | 32923 ft | 485 kts | 51° |
| 2026-05-01 11:08 | -36.54796 | 146.76566 | 33234 ft | 485 kts | 51° |
| 2026-05-01 11:08 | -36.50821 | 146.83329 | 33822 ft | 484 kts | 51° |
| 2026-05-01 11:09 | -36.48830 | 146.86710 | 34049 ft | 486 kts | 50° |
| 2026-05-01 11:09 | -36.46830 | 146.90104 | 34260 ft | 487 kts | 50° |
| 2026-05-01 11:09 | -36.44829 | 146.93499 | 34525 ft | 487 kts | 50° |
| 2026-05-01 11:10 | -36.40844 | 147.00252 | 35045 ft | 485 kts | 50° |
| 2026-05-01 11:10 | -36.38870 | 147.03656 | 35216 ft | 484 kts | 57° |
| 2026-05-01 11:10 | -36.34914 | 147.10426 | 35587 ft | 483 kts | 50° |
| 2026-05-01 11:11 | -36.32908 | 147.13771 | 35804 ft | 483 kts | 50° |
| 2026-05-01 11:11 | -36.30904 | 147.17120 | 36010 ft | 483 kts | 50° |
| 2026-05-01 11:11 | -36.28909 | 147.20458 | 36254 ft | 482 kts | 50° |
| 2026-05-01 11:11 | -36.26915 | 147.23798 | 36461 ft | 482 kts | 51° |
| 2026-05-01 11:12 | -36.24926 | 147.27132 | 36649 ft | 481 kts | 51° |
| 2026-05-01 11:12 | -36.22935 | 147.30471 | 36885 ft | 480 kts | 51° |
| 2026-05-01 11:12 | -36.20953 | 147.33793 | 37094 ft | 480 kts | 51° |
| 2026-05-01 11:12 | -36.18972 | 147.37112 | 37300 ft | 479 kts | 51° |
| 2026-05-01 11:13 | -36.15006 | 147.43748 | 37327 ft | 479 kts | 51° |
| 2026-05-01 11:13 | -36.11040 | 147.50370 | 37331 ft | 480 kts | 51° |
| 2026-05-01 11:14 | -36.07072 | 147.56985 | 37332 ft | 478 kts | 51° |
| 2026-05-01 11:14 | -36.03093 | 147.63594 | 37335 ft | 480 kts | 50° |
| 2026-05-01 11:15 | -35.99102 | 147.70202 | 37336 ft | 480 kts | 50° |
| 2026-05-01 11:15 | -35.95115 | 147.76814 | 37341 ft | 481 kts | 51° |
| 2026-05-01 11:16 | -35.91122 | 147.83442 | 37346 ft | 481 kts | 51° |
| 2026-05-01 11:16 | -35.87121 | 147.90053 | 37346 ft | 481 kts | 50° |
| 2026-05-01 11:17 | -35.83116 | 147.96653 | 37351 ft | 481 kts | 51° |
| 2026-05-01 11:17 | -35.79102 | 148.03254 | 37356 ft | 482 kts | 51° |
| 2026-05-01 11:18 | -35.75081 | 148.09857 | 37361 ft | 481 kts | 50° |
| 2026-05-01 11:18 | -35.71059 | 148.16447 | 37369 ft | 481 kts | 50° |
| 2026-05-01 11:19 | -35.67031 | 148.23034 | 37373 ft | 482 kts | 51° |
| 2026-05-01 11:19 | -35.63002 | 148.29611 | 37383 ft | 482 kts | 51° |
| 2026-05-01 11:20 | -35.58968 | 148.36183 | 37384 ft | 481 kts | 51° |
| 2026-05-01 11:20 | -35.54929 | 148.42751 | 37387 ft | 482 kts | 51° |
| 2026-05-01 11:21 | -35.50895 | 148.49299 | 37391 ft | 483 kts | 51° |
| 2026-05-01 11:21 | -35.46834 | 148.55879 | 37386 ft | 482 kts | 51° |
| 2026-05-01 11:22 | -35.42805 | 148.62394 | 37378 ft | 481 kts | 51° |
| 2026-05-01 11:22 | -35.38739 | 148.68954 | 37382 ft | 483 kts | 51° |
| 2026-05-01 11:23 | -35.34676 | 148.75500 | 37389 ft | 483 kts | 50° |
| 2026-05-01 11:23 | -35.30604 | 148.82047 | 37382 ft | 482 kts | 50° |
| 2026-05-01 11:24 | -35.26540 | 148.88571 | 37378 ft | 482 kts | 50° |
| 2026-05-01 11:25 | -35.20420 | 148.98369 | 37377 ft | 483 kts | 50° |
| 2026-05-01 11:25 | -35.14319 | 149.08111 | 37381 ft | 483 kts | 50° |
| 2026-05-01 11:26 | -35.08193 | 149.17864 | 37376 ft | 483 kts | 50° |
| 2026-05-01 11:27 | -35.04095 | 149.24374 | 37380 ft | 483 kts | 50° |
| 2026-05-01 11:27 | -34.99998 | 149.30871 | 37354 ft | 482 kts | 50° |
| 2026-05-01 11:27 | -34.97955 | 149.34107 | 36829 ft | 481 kts | 50° |
| 2026-05-01 11:28 | -34.95900 | 149.37356 | 35871 ft | 489 kts | 50° |
| 2026-05-01 11:28 | -34.93798 | 149.40676 | 34874 ft | 499 kts | 50° |
| 2026-05-01 11:28 | -34.91659 | 149.44052 | 33968 ft | 506 kts | 50° |
| 2026-05-01 11:29 | -34.87376 | 149.50803 | 32838 ft | 500 kts | 51° |
| 2026-05-01 11:29 | -34.85254 | 149.54141 | 32315 ft | 498 kts | 51° |
| 2026-05-01 11:29 | -34.81006 | 149.60810 | 31343 ft | 499 kts | 51° |
| 2026-05-01 11:30 | -34.78879 | 149.64143 | 30917 ft | 498 kts | 51° |
| 2026-05-01 11:30 | -34.76757 | 149.67463 | 30501 ft | 497 kts | 51° |
| 2026-05-01 11:30 | -34.74637 | 149.70775 | 30028 ft | 496 kts | 51° |
| 2026-05-01 11:30 | -34.72563 | 149.74014 | 29549 ft | 486 kts | 51° |
| 2026-05-01 11:31 | -34.70518 | 149.77208 | 29038 ft | 473 kts | 51° |
| 2026-05-01 11:31 | -34.68523 | 149.80323 | 28496 ft | 461 kts | 51° |
| 2026-05-01 11:31 | -34.66581 | 149.83357 | 27963 ft | 449 kts | 51° |
| 2026-05-01 11:31 | -34.64682 | 149.86321 | 27422 ft | 441 kts | 51° |
| 2026-05-01 11:32 | -34.62809 | 149.89243 | 26908 ft | 437 kts | 50° |
| 2026-05-01 11:32 | -34.60954 | 149.92135 | 26412 ft | 431 kts | 50° |
| 2026-05-01 11:32 | -34.59124 | 149.94986 | 25931 ft | 425 kts | 50° |
| 2026-05-01 11:32 | -34.57318 | 149.97798 | 25456 ft | 420 kts | 50° |
| 2026-05-01 11:33 | -34.55529 | 150.00582 | 24986 ft | 416 kts | 50° |
| 2026-05-01 11:33 | -34.53755 | 150.03341 | 24545 ft | 413 kts | 50° |
| 2026-05-01 11:33 | -34.51988 | 150.06085 | 24141 ft | 411 kts | 50° |
| 2026-05-01 11:33 | -34.50241 | 150.08797 | 23708 ft | 407 kts | 50° |
| 2026-05-01 11:34 | -34.48504 | 150.11489 | 23244 ft | 403 kts | 50° |
| 2026-05-01 11:34 | -34.46787 | 150.14148 | 22779 ft | 399 kts | 50° |
| 2026-05-01 11:34 | -34.45082 | 150.16788 | 22329 ft | 396 kts | 50° |
| 2026-05-01 11:34 | -34.43386 | 150.19407 | 21886 ft | 394 kts | 50° |
| 2026-05-01 11:35 | -34.41699 | 150.22012 | 21459 ft | 392 kts | 50° |
| 2026-05-01 11:35 | -34.40021 | 150.24598 | 21039 ft | 387 kts | 50° |
| 2026-05-01 11:35 | -34.38380 | 150.27127 | 20578 ft | 378 kts | 51° |
| 2026-05-01 11:35 | -34.36779 | 150.29593 | 20102 ft | 368 kts | 51° |
| 2026-05-01 11:36 | -34.35209 | 150.32009 | 19616 ft | 360 kts | 51° |
| 2026-05-01 11:36 | -34.33695 | 150.34339 | 19124 ft | 353 kts | 51° |
| 2026-05-01 11:36 | -34.32167 | 150.36687 | 18615 ft | 347 kts | 51° |
| 2026-05-01 11:36 | -34.30704 | 150.38932 | 18052 ft | 342 kts | 51° |
| 2026-05-01 11:37 | -34.29241 | 150.41175 | 17484 ft | 337 kts | 51° |
| 2026-05-01 11:37 | -34.27801 | 150.43379 | 16936 ft | 332 kts | 51° |
| 2026-05-01 11:37 | -34.26422 | 150.45599 | 16366 ft | 329 kts | 55° |
| 2026-05-01 11:37 | -34.25286 | 150.47985 | 15840 ft | 326 kts | 62° |
| 2026-05-01 11:38 | -34.24244 | 150.50402 | 15394 ft | 321 kts | 61° |
| 2026-05-01 11:38 | -34.23225 | 150.52787 | 14949 ft | 317 kts | 62° |
| 2026-05-01 11:38 | -34.22228 | 150.55144 | 14510 ft | 313 kts | 62° |
| 2026-05-01 11:38 | -34.21249 | 150.57481 | 14061 ft | 311 kts | 62° |
| 2026-05-01 11:39 | -34.20287 | 150.59802 | 13588 ft | 307 kts | 62° |
| 2026-05-01 11:39 | -34.19345 | 150.62098 | 13110 ft | 303 kts | 63° |
| 2026-05-01 11:39 | -34.18449 | 150.64389 | 12657 ft | 299 kts | 64° |
| 2026-05-01 11:39 | -34.17626 | 150.66674 | 12249 ft | 294 kts | 65° |
| 2026-05-01 11:40 | -34.16843 | 150.68931 | 11880 ft | 288 kts | 66° |
| 2026-05-01 11:40 | -34.16079 | 150.71137 | 11536 ft | 282 kts | 66° |
| 2026-05-01 11:40 | -34.15228 | 150.73217 | 11321 ft | 270 kts | 58° |
| 2026-05-01 11:40 | -34.14313 | 150.75152 | 11072 ft | 261 kts | 60° |
| 2026-05-01 11:41 | -34.13501 | 150.77077 | 10818 ft | 254 kts | 63° |
| 2026-05-01 11:41 | -34.12747 | 150.78988 | 10448 ft | 247 kts | 63° |
| 2026-05-01 11:41 | -34.11994 | 150.80772 | 10168 ft | 230 kts | 58° |
| 2026-05-01 11:41 | -34.11170 | 150.82360 | 9857 ft | 216 kts | 55° |
| 2026-05-01 11:42 | -34.10397 | 150.83860 | 9516 ft | 205 kts | 59° |
| 2026-05-01 11:42 | -34.09672 | 150.85312 | 9091 ft | 200 kts | 55° |
| 2026-05-01 11:42 | -34.08890 | 150.86757 | 8700 ft | 211 kts | 56° |
| 2026-05-01 11:42 | -34.08107 | 150.88279 | 8325 ft | 215 kts | 57° |
| 2026-05-01 11:43 | -34.07343 | 150.89827 | 7957 ft | 214 kts | 58° |